ANZ450 NZAA-NZWN
Flight info
| Callsign | ANZ450 |
|---|---|
| Flight time | N/A |
| Altitude | 32000 |
| Route | NZAA/05R 3702S17456E IGBAT Y506 TPAPA TPAP5A/34 |
| Aircraft | A321/M-SDE3FGHIRWY/LB1 |
Departure
| Time | N/A |
|---|---|
| Airport | Auckland International Airport (NZAA) |
Arrival
| Time | 2026-05-01 07:38 |
|---|---|
| Airport | Wellington International Airport (NZWN) |
| Time | Latitude | Longitude | Altitude | Speed | Heading |
|---|---|---|---|---|---|
| 2026-05-01 07:23 | -40.75190 | 174.46301 | 18337 ft | 330 kts | 172° |
| 2026-05-01 07:23 | -40.79700 | 174.47185 | 17532 ft | 325 kts | 171° |
| 2026-05-01 07:24 | -40.81931 | 174.47621 | 17139 ft | 323 kts | 172° |
| 2026-05-01 07:24 | -40.84146 | 174.48041 | 16756 ft | 321 kts | 172° |
| 2026-05-01 07:24 | -40.86350 | 174.48443 | 16359 ft | 319 kts | 172° |
| 2026-05-01 07:24 | -40.88520 | 174.48830 | 15975 ft | 318 kts | 172° |
| 2026-05-01 07:25 | -40.90710 | 174.49217 | 15580 ft | 316 kts | 172° |
| 2026-05-01 07:25 | -40.92888 | 174.49602 | 15200 ft | 315 kts | 172° |
| 2026-05-01 07:25 | -40.95060 | 174.49986 | 14816 ft | 315 kts | 172° |
| 2026-05-01 07:25 | -40.97225 | 174.50366 | 14433 ft | 314 kts | 172° |
| 2026-05-01 07:26 | -40.99393 | 174.50747 | 14026 ft | 313 kts | 172° |
| 2026-05-01 07:26 | -41.01546 | 174.51126 | 13647 ft | 311 kts | 172° |
| 2026-05-01 07:26 | -41.03688 | 174.51504 | 13270 ft | 309 kts | 172° |
| 2026-05-01 07:26 | -41.05811 | 174.51880 | 12892 ft | 307 kts | 172° |
| 2026-05-01 07:27 | -41.07920 | 174.52255 | 12521 ft | 305 kts | 172° |
| 2026-05-01 07:27 | -41.10019 | 174.52668 | 12110 ft | 304 kts | 171° |
| 2026-05-01 07:27 | -41.12105 | 174.53113 | 11427 ft | 301 kts | 170° |
| 2026-05-01 07:27 | -41.14149 | 174.53565 | 10807 ft | 294 kts | 170° |
| 2026-05-01 07:28 | -41.16105 | 174.53998 | 10481 ft | 277 kts | 170° |
| 2026-05-01 07:28 | -41.17958 | 174.54406 | 10144 ft | 266 kts | 170° |
| 2026-05-01 07:28 | -41.19787 | 174.54808 | 9808 ft | 266 kts | 170° |
| 2026-05-01 07:28 | -41.21588 | 174.55201 | 9485 ft | 265 kts | 170° |
| 2026-05-01 07:29 | -41.23405 | 174.55592 | 9164 ft | 264 kts | 171° |
| 2026-05-01 07:29 | -41.25218 | 174.55980 | 8837 ft | 263 kts | 171° |
| 2026-05-01 07:29 | -41.27023 | 174.56368 | 8510 ft | 263 kts | 171° |
| 2026-05-01 07:29 | -41.28823 | 174.56761 | 8196 ft | 262 kts | 168° |
| 2026-05-01 07:30 | -41.30559 | 174.57490 | 7872 ft | 261 kts | 156° |
| 2026-05-01 07:30 | -41.32218 | 174.58467 | 7551 ft | 261 kts | 156° |
| 2026-05-01 07:30 | -41.33879 | 174.59436 | 7225 ft | 260 kts | 156° |
| 2026-05-01 07:30 | -41.35540 | 174.60400 | 6952 ft | 258 kts | 156° |
| 2026-05-01 07:31 | -41.37160 | 174.61336 | 6799 ft | 250 kts | 156° |
| 2026-05-01 07:31 | -41.41331 | 174.63754 | 6384 ft | 249 kts | 156° |
| 2026-05-01 07:32 | -41.44513 | 174.65606 | 5611 ft | 247 kts | 156° |
| 2026-05-01 07:32 | -41.46081 | 174.66517 | 5051 ft | 244 kts | 156° |
| 2026-05-01 07:33 | -41.48793 | 174.68969 | 4162 ft | 236 kts | 122° |
| 2026-05-01 07:33 | -41.49456 | 174.70938 | 3741 ft | 233 kts | 100° |
| 2026-05-01 07:33 | -41.49681 | 174.75105 | 3354 ft | 215 kts | 90° |
| 2026-05-01 07:34 | -41.49734 | 174.77020 | 3282 ft | 196 kts | 84° |
| 2026-05-01 07:34 | -41.48399 | 174.79512 | 2936 ft | 162 kts | 19° |
| 2026-05-01 07:34 | -41.47324 | 174.79707 | 2710 ft | 150 kts | 1° |
| 2026-05-01 07:35 | -41.46321 | 174.79768 | 2575 ft | 140 kts | 2° |
| 2026-05-01 07:35 | -41.45355 | 174.79833 | 2362 ft | 137 kts | 3° |
| 2026-05-01 07:35 | -41.44416 | 174.79897 | 2156 ft | 137 kts | 3° |
| 2026-05-01 07:35 | -41.43454 | 174.79961 | 1954 ft | 137 kts | 2° |
| 2026-05-01 07:36 | -41.42503 | 174.80024 | 1768 ft | 137 kts | 2° |
| 2026-05-01 07:36 | -41.41552 | 174.80088 | 1595 ft | 137 kts | 2° |
| 2026-05-01 07:36 | -41.40601 | 174.80150 | 1419 ft | 142 kts | 2° |
| 2026-05-01 07:36 | -41.39597 | 174.80213 | 1226 ft | 148 kts | 2° |
| 2026-05-01 07:37 | -41.37525 | 174.80328 | 853 ft | 145 kts | 3° |
| 2026-05-01 07:37 | -41.36537 | 174.80387 | 677 ft | 140 kts | 4° |
| 2026-05-01 07:37 | -41.35574 | 174.80457 | 482 ft | 137 kts | 3° |
| 2026-05-01 07:38 | -41.34631 | 174.80535 | 300 ft | 132 kts | 7° |
| 2026-05-01 07:38 | -41.33732 | 174.80618 | 115 ft | 129 kts | 4° |
| 2026-05-01 07:38 | -41.32321 | 174.80714 | 37 ft | 37 kts | 3° |
| 2026-05-01 07:39 | -41.32179 | 174.80733 | 42 ft | 12 kts | 35° |
| 2026-05-01 07:39 | -41.32172 | 174.80787 | 44 ft | 5 kts | 94° |
| 2026-05-01 07:39 | -41.32243 | 174.80847 | 42 ft | 11 kts | 183° |
| 2026-05-01 07:40 | -41.32335 | 174.80840 | 38 ft | 16 kts | 183° |
| 2026-05-01 07:40 | -41.32458 | 174.80832 | 33 ft | 20 kts | 183° |
| 2026-05-01 07:40 | -41.32613 | 174.80823 | 28 ft | 24 kts | 182° |
| 2026-05-01 07:40 | -41.32779 | 174.80811 | 26 ft | 20 kts | 183° |
| 2026-05-01 07:41 | -41.32841 | 174.80871 | 26 ft | 11 kts | 150° |
| 2026-05-01 07:41 | -41.32908 | 174.80907 | 26 ft | 11 kts | 117° |
| 2026-05-01 07:41 | -41.32979 | 174.80972 | 26 ft | 0 kts | 159° |